Platinum, Alaska
Current Conditions -  °F | °C
As of 4:56 PM on Sunday 25 Jan 2015 (Local Time) from PAPM Reporting Station
Clear Clear  
Wind Chill: -12°   Ceiling: Unl
Heat Index:   Visibility: 10mi
Dew Point: -1°   Wind: 13mph
Humidity: 76%   Direction: 20°NNE
Pressure: 29.96"   Gusts: NA
Location:  59°N, 161.81°W
Report Text: PAPM 260156Z AUTO 02011KT 10SM CLR M15/M18 A2996 RMK AO2 TSNO T11501183 SLP146 $
Loading
Personal Weather Stations






























Interactive Weather Map New forecast layout! Learn more

10-Day Weather Forecast

Advertisements
Track Severe Weather on mobile